KLDM/LDM METAR and TAF weather

Enter ICAO airport designator
Station Type Date Time Source
KLDM METAR 2019/08/18 18:58 UTC NOAA

KLDM 181858Z AUTO 22012G17KT 10SM CLR 23/20 A2978 RMK AO2 T02280200


Station Type Date Time Source
KLDM Decoded METAR 2019/08/18 18:58 UTC NOAA

Station name not available
Aug 18, 2019 - 02:58 PM EDT / 2019.08.18 1858 UTC
Wind: from the SW (220 degrees) at 14 MPH (12 KT) gusting to 20 MPH (17 KT):0
Visibility: 10 mile(s):0
Sky conditions: clear
Temperature: 73.0 F (22.8 C)
Dew Point: 68.0 F (20.0 C)
Relative Humidity: 84%
Pressure (altimeter): 29.78 in. Hg (1008 hPa)
ob: KLDM 181858Z AUTO 22012G17KT 10SM CLR 23/20 A2978 RMK AO2 T02280200
cycle: 19

Station Type Date Time Source
KLDM TAF UTC NOAA

Error!

Example: see airport list